sensor_id;sensor_type;location;lat;lon;timestamp;P1;durP1;ratioP1;P2;durP2;ratioP2
85881;SDS011;76395;51.392;21.182;2024-03-17T00:00:45;8.07;;;4.25;;
85881;SDS011;76395;51.392;21.182;2024-03-17T00:02:23;8.20;;;3.90;;
85881;SDS011;76395;51.392;21.182;2024-03-17T00:03:24;6.30;;;3.75;;
85881;SDS011;76395;51.392;21.182;2024-03-17T00:04:25;9.43;;;4.35;;
85881;SDS011;76395;51.392;21.182;2024-03-17T00:06:29;8.70;;;3.53;;
85881;SDS011;76395;51.392;21.182;2024-03-17T00:07:30;7.10;;;3.80;;
85881;SDS011;76395;51.392;21.182;2024-03-17T00:08:31;8.02;;;4.05;;
85881;SDS011;76395;51.392;21.182;2024-03-17T00:09:32;6.18;;;3.90;;
85881;SDS011;76395;51.392;21.182;2024-03-17T00:10:34;8.45;;;3.95;;
85881;SDS011;76395;51.392;21.182;2024-03-17T00:11:35;9.68;;;3.67;;
85881;SDS011;76395;51.392;21.182;2024-03-17T00:12:36;10.32;;;4.03;;
85881;SDS011;76395;51.392;21.182;2024-03-17T00:13:38;14.43;;;3.75;;
85881;SDS011;76395;51.392;21.182;2024-03-17T00:14:39;8.55;;;3.58;;
85881;SDS011;76395;51.392;21.182;2024-03-17T00:15:40;7.05;;;3.30;;
85881;SDS011;76395;51.392;21.182;2024-03-17T00:16:41;5.03;;;3.58;;
85881;SDS011;76395;51.392;21.182;2024-03-17T00:17:42;6.53;;;3.13;;
85881;SDS011;76395;51.392;21.182;2024-03-17T00:18:44;9.50;;;3.80;;
85881;SDS011;76395;51.392;21.182;2024-03-17T00:19:49;10.38;;;3.47;;
85881;SDS011;76395;51.392;21.182;2024-03-17T00:20:50;10.80;;;3.17;;
85881;SDS011;76395;51.392;21.182;2024-03-17T00:21:51;7.22;;;3.22;;
85881;SDS011;76395;51.392;21.182;2024-03-17T00:22:52;10.30;;;3.10;;
85881;SDS011;76395;51.392;21.182;2024-03-17T00:23:52;8.35;;;3.80;;
85881;SDS011;76395;51.392;21.182;2024-03-17T00:24:53;8.98;;;2.97;;
85881;SDS011;76395;51.392;21.182;2024-03-17T00:25:55;7.18;;;3.13;;
85881;SDS011;76395;51.392;21.182;2024-03-17T00:26:56;7.35;;;2.50;;
85881;SDS011;76395;51.392;21.182;2024-03-17T00:27:56;8.05;;;2.85;;
85881;SDS011;76395;51.392;21.182;2024-03-17T00:28:58;6.85;;;2.75;;
85881;SDS011;76395;51.392;21.182;2024-03-17T00:29:59;8.90;;;3.00;;
85881;SDS011;76395;51.392;21.182;2024-03-17T00:31:02;12.10;;;3.33;;
85881;SDS011;76395;51.392;21.182;2024-03-17T00:32:04;9.20;;;3.15;;
85881;SDS011;76395;51.392;21.182;2024-03-17T00:33:06;11.82;;;2.83;;
85881;SDS011;76395;51.392;21.182;2024-03-17T00:34:08;5.60;;;3.17;;
85881;SDS011;76395;51.392;21.182;2024-03-17T00:35:10;9.70;;;3.10;;
85881;SDS011;76395;51.392;21.182;2024-03-17T00:36:14;6.18;;;3.10;;
85881;SDS011;76395;51.392;21.182;2024-03-17T00:37:15;8.38;;;2.90;;
85881;SDS011;76395;51.392;21.182;2024-03-17T00:38:16;5.95;;;3.30;;
85881;SDS011;76395;51.392;21.182;2024-03-17T00:39:17;7.28;;;3.47;;
85881;SDS011;76395;51.392;21.182;2024-03-17T00:40:18;9.65;;;3.17;;
85881;SDS011;76395;51.392;21.182;2024-03-17T00:41:19;12.05;;;3.63;;
85881;SDS011;76395;51.392;21.182;2024-03-17T00:42:20;12.45;;;5.05;;
85881;SDS011;76395;51.392;21.182;2024-03-17T00:43:21;13.52;;;4.47;;
85881;SDS011;76395;51.392;21.182;2024-03-17T00:44:22;8.60;;;4.20;;
85881;SDS011;76395;51.392;21.182;2024-03-17T00:45:23;12.50;;;3.88;;
85881;SDS011;76395;51.392;21.182;2024-03-17T00:46:24;6.93;;;4.10;;
85881;SDS011;76395;51.392;21.182;2024-03-17T00:47:25;11.20;;;4.50;;
85881;SDS011;76395;51.392;21.182;2024-03-17T00:48:26;7.47;;;4.05;;
85881;SDS011;76395;51.392;21.182;2024-03-17T00:49:27;5.32;;;4.18;;
85881;SDS011;76395;51.392;21.182;2024-03-17T00:50:28;9.85;;;4.80;;
85881;SDS011;76395;51.392;21.182;2024-03-17T00:51:29;9.95;;;5.05;;
85881;SDS011;76395;51.392;21.182;2024-03-17T00:52:30;7.80;;;4.35;;
85881;SDS011;76395;51.392;21.182;2024-03-17T00:53:31;15.60;;;4.45;;
85881;SDS011;76395;51.392;21.182;2024-03-17T00:54:32;11.25;;;4.82;;
85881;SDS011;76395;51.392;21.182;2024-03-17T00:55:33;10.10;;;5.60;;
85881;SDS011;76395;51.392;21.182;2024-03-17T00:56:34;9.55;;;4.78;;
85881;SDS011;76395;51.392;21.182;2024-03-17T00:57:35;10.55;;;5.13;;
85881;SDS011;76395;51.392;21.182;2024-03-17T00:58:37;7.45;;;4.22;;
85881;SDS011;76395;51.392;21.182;2024-03-17T00:59:39;9.20;;;4.25;;
85881;SDS011;76395;51.392;21.182;2024-03-17T01:00:40;9.48;;;4.30;;
85881;SDS011;76395;51.392;21.182;2024-03-17T01:01:40;8.23;;;4.90;;
85881;SDS011;76395;51.392;21.182;2024-03-17T01:02:42;13.30;;;4.97;;
85881;SDS011;76395;51.392;21.182;2024-03-17T01:03:43;7.80;;;4.63;;
85881;SDS011;76395;51.392;21.182;2024-03-17T01:04:44;12.82;;;4.53;;
85881;SDS011;76395;51.392;21.182;2024-03-17T01:05:45;13.23;;;4.35;;
85881;SDS011;76395;51.392;21.182;2024-03-17T01:06:48;9.30;;;3.97;;
85881;SDS011;76395;51.392;21.182;2024-03-17T01:07:49;8.60;;;3.80;;
85881;SDS011;76395;51.392;21.182;2024-03-17T01:08:50;12.90;;;4.25;;
85881;SDS011;76395;51.392;21.182;2024-03-17T01:09:52;9.13;;;3.90;;
85881;SDS011;76395;51.392;21.182;2024-03-17T01:10:53;10.75;;;4.13;;
85881;SDS011;76395;51.392;21.182;2024-03-17T01:11:54;8.88;;;4.10;;
85881;SDS011;76395;51.392;21.182;2024-03-17T01:12:55;8.70;;;3.65;;
85881;SDS011;76395;51.392;21.182;2024-03-17T01:13:55;9.43;;;3.50;;
85881;SDS011;76395;51.392;21.182;2024-03-17T01:14:57;8.88;;;3.65;;
85881;SDS011;76395;51.392;21.182;2024-03-17T01:15:57;10.40;;;3.88;;
85881;SDS011;76395;51.392;21.182;2024-03-17T01:16:59;8.23;;;4.13;;
85881;SDS011;76395;51.392;21.182;2024-03-17T01:18:01;6.03;;;3.75;;
85881;SDS011;76395;51.392;21.182;2024-03-17T01:19:02;7.88;;;3.45;;
85881;SDS011;76395;51.392;21.182;2024-03-17T01:20:03;13.07;;;3.55;;
85881;SDS011;76395;51.392;21.182;2024-03-17T01:21:04;10.35;;;3.25;;
85881;SDS011;76395;51.392;21.182;2024-03-17T01:22:06;7.75;;;3.80;;
85881;SDS011;76395;51.392;21.182;2024-03-17T01:23:07;9.02;;;3.28;;
85881;SDS011;76395;51.392;21.182;2024-03-17T01:24:08;8.63;;;3.15;;
85881;SDS011;76395;51.392;21.182;2024-03-17T01:25:09;13.77;;;4.25;;
85881;SDS011;76395;51.392;21.182;2024-03-17T01:26:10;11.73;;;3.65;;
85881;SDS011;76395;51.392;21.182;2024-03-17T01:27:11;9.73;;;4.35;;
85881;SDS011;76395;51.392;21.182;2024-03-17T01:28:14;14.80;;;4.05;;
85881;SDS011;76395;51.392;21.182;2024-03-17T01:29:15;11.95;;;3.63;;
85881;SDS011;76395;51.392;21.182;2024-03-17T01:30:16;8.13;;;3.20;;
85881;SDS011;76395;51.392;21.182;2024-03-17T01:31:18;6.95;;;3.25;;
85881;SDS011;76395;51.392;21.182;2024-03-17T01:32:18;9.93;;;4.20;;
85881;SDS011;76395;51.392;21.182;2024-03-17T01:33:20;9.32;;;2.83;;
85881;SDS011;76395;51.392;21.182;2024-03-17T01:34:20;5.30;;;2.63;;
85881;SDS011;76395;51.392;21.182;2024-03-17T01:35:22;17.95;;;4.13;;
85881;SDS011;76395;51.392;21.182;2024-03-17T01:36:23;8.48;;;3.40;;
85881;SDS011;76395;51.392;21.182;2024-03-17T01:37:24;10.18;;;2.92;;
85881;SDS011;76395;51.392;21.182;2024-03-17T01:38:25;12.52;;;2.90;;
85881;SDS011;76395;51.392;21.182;2024-03-17T01:39:26;6.93;;;3.03;;
85881;SDS011;76395;51.392;21.182;2024-03-17T01:40:27;12.02;;;3.28;;
85881;SDS011;76395;51.392;21.182;2024-03-17T01:41:28;6.43;;;2.88;;
85881;SDS011;76395;51.392;21.182;2024-03-17T01:42:29;8.40;;;2.90;;
85881;SDS011;76395;51.392;21.182;2024-03-17T01:43:30;10.77;;;3.08;;
85881;SDS011;76395;51.392;21.182;2024-03-17T01:44:31;12.02;;;3.90;;
85881;SDS011;76395;51.392;21.182;2024-03-17T01:45:32;10.60;;;3.00;;
85881;SDS011;76395;51.392;21.182;2024-03-17T01:46:33;10.73;;;2.92;;
85881;SDS011;76395;51.392;21.182;2024-03-17T01:47:35;12.85;;;2.88;;
85881;SDS011;76395;51.392;21.182;2024-03-17T01:48:36;14.18;;;4.20;;
85881;SDS011;76395;51.392;21.182;2024-03-17T01:49:37;8.60;;;2.72;;
85881;SDS011;76395;51.392;21.182;2024-03-17T01:50:38;10.65;;;3.10;;
85881;SDS011;76395;51.392;21.182;2024-03-17T01:51:39;12.15;;;2.80;;
85881;SDS011;76395;51.392;21.182;2024-03-17T01:52:41;6.45;;;2.60;;
85881;SDS011;76395;51.392;21.182;2024-03-17T01:53:41;9.82;;;3.25;;
85881;SDS011;76395;51.392;21.182;2024-03-17T01:54:43;9.55;;;2.70;;
85881;SDS011;76395;51.392;21.182;2024-03-17T01:55:44;10.13;;;2.63;;
85881;SDS011;76395;51.392;21.182;2024-03-17T01:56:47;9.32;;;3.17;;
85881;SDS011;76395;51.392;21.182;2024-03-17T01:57:51;10.90;;;3.72;;
85881;SDS011;76395;51.392;21.182;2024-03-17T01:58:52;10.82;;;3.67;;
85881;SDS011;76395;51.392;21.182;2024-03-17T01:59:54;14.05;;;3.67;;
